sensor_id;sensor_type;location;lat;lon;timestamp;pressure;altitude;pressure_sealevel;temperature;humidity
14902;BME280;7542;49.078;9.194;2023-04-25T00:00:55;97980.81;;;28.96;32.02
14902;BME280;7542;49.078;9.194;2023-04-25T00:01:58;97976.53;;;28.95;31.89
14902;BME280;7542;49.078;9.194;2023-04-25T00:03:02;97976.22;;;28.96;32.26
14902;BME280;7542;49.078;9.194;2023-04-25T00:04:04;97978.75;;;28.93;31.99
14902;BME280;7542;49.078;9.194;2023-04-25T00:05:08;97982.22;;;28.93;32.11
14902;BME280;7542;49.078;9.194;2023-04-25T00:06:11;97980.34;;;28.94;32.14
14902;BME280;7542;49.078;9.194;2023-04-25T00:07:14;97972.53;;;28.92;31.89
14902;BME280;7542;49.078;9.194;2023-04-25T00:08:15;97983.34;;;28.92;31.81
14902;BME280;7542;49.078;9.194;2023-04-25T00:09:17;97978.25;;;28.91;32.11
14902;BME280;7542;49.078;9.194;2023-04-25T00:10:20;97980.16;;;28.90;31.93
14902;BME280;7542;49.078;9.194;2023-04-25T00:11:23;97980.16;;;28.90;32.03
14902;BME280;7542;49.078;9.194;2023-04-25T00:12:25;97965.06;;;28.89;31.98
14902;BME280;7542;49.078;9.194;2023-04-25T00:13:30;97970.94;;;28.91;31.89
14902;BME280;7542;49.078;9.194;2023-04-25T00:14:32;97968.88;;;28.88;32.17
14902;BME280;7542;49.078;9.194;2023-04-25T00:15:35;97977.75;;;28.89;32.35
14902;BME280;7542;49.078;9.194;2023-04-25T00:16:39;97975.06;;;28.89;32.02
14902;BME280;7542;49.078;9.194;2023-04-25T00:17:43;97975.06;;;28.89;32.16
14902;BME280;7542;49.078;9.194;2023-04-25T00:18:45;97980.47;;;28.89;32.16
14902;BME280;7542;49.078;9.194;2023-04-25T00:19:52;97975.06;;;28.89;32.20
14902;BME280;7542;49.078;9.194;2023-04-25T00:20:55;97973.72;;;28.86;32.22
14902;BME280;7542;49.078;9.194;2023-04-25T00:21:57;97976.41;;;28.86;32.22
14902;BME280;7542;49.078;9.194;2023-04-25T00:23:00;97976.41;;;28.86;31.83
14902;BME280;7542;49.078;9.194;2023-04-25T00:24:02;97976.72;;;28.84;31.99
14902;BME280;7542;49.078;9.194;2023-04-25T00:25:06;97970.22;;;28.85;32.08
14902;BME280;7542;49.078;9.194;2023-04-25T00:26:08;97974.50;;;28.86;32.12
14902;BME280;7542;49.078;9.194;2023-04-25T00:27:11;97978.63;;;28.84;31.86
14902;BME280;7542;49.078;9.194;2023-04-25T00:28:13;97972.13;;;28.85;31.92
14902;BME280;7542;49.078;9.194;2023-04-25T00:29:15;97966.22;;;28.83;32.28
14902;BME280;7542;49.078;9.194;2023-04-25T00:30:17;97965.44;;;28.82;32.22
14902;BME280;7542;49.078;9.194;2023-04-25T00:31:19;97968.13;;;28.82;32.31
14902;BME280;7542;49.078;9.194;2023-04-25T00:32:21;97971.94;;;28.81;32.36
14902;BME280;7542;49.078;9.194;2023-04-25T00:33:23;97969.25;;;28.81;32.12
14902;BME280;7542;49.078;9.194;2023-04-25T00:34:25;97976.22;;;28.82;32.02
14902;BME280;7542;49.078;9.194;2023-04-25T00:35:27;97969.25;;;28.81;32.03
14902;BME280;7542;49.078;9.194;2023-04-25T00:36:29;97962.56;;;28.79;32.13
14902;BME280;7542;49.078;9.194;2023-04-25T00:37:31;97957.66;;;28.81;31.95
14902;BME280;7542;49.078;9.194;2023-04-25T00:38:33;97959.56;;;28.80;31.90
14902;BME280;7542;49.078;9.194;2023-04-25T00:39:35;97963.03;;;28.81;32.23
14902;BME280;7542;49.078;9.194;2023-04-25T00:40:37;97963.94;;;28.76;32.25
14902;BME280;7542;49.078;9.194;2023-04-25T00:41:40;97957.47;;;28.77;32.01
14902;BME280;7542;49.078;9.194;2023-04-25T00:42:42;97966.34;;;28.78;32.25
14902;BME280;7542;49.078;9.194;2023-04-25T00:43:47;97956.66;;;28.77;31.87
14902;BME280;7542;49.078;9.194;2023-04-25T00:44:51;97952.88;;;28.78;31.96
14902;BME280;7542;49.078;9.194;2023-04-25T00:45:54;97957.47;;;28.77;32.05
14902;BME280;7542;49.078;9.194;2023-04-25T00:47:00;97956.66;;;28.77;32.35
14902;BME280;7542;49.078;9.194;2023-04-25T00:48:04;97948.84;;;28.75;32.10
14902;BME280;7542;49.078;9.194;2023-04-25T00:49:06;97943.75;;;28.74;32.13
14902;BME280;7542;49.078;9.194;2023-04-25T00:50:09;97949.97;;;28.74;32.20
14902;BME280;7542;49.078;9.194;2023-04-25T00:51:19;97948.28;;;28.78;32.16
14902;BME280;7542;49.078;9.194;2023-04-25T00:52:24;97945.34;;;28.75;32.06
14902;BME280;7542;49.078;9.194;2023-04-25T00:53:27;97946.47;;;28.74;32.22
14902;BME280;7542;49.078;9.194;2023-04-25T00:54:30;97951.69;;;28.70;31.96
14902;BME280;7542;49.078;9.194;2023-04-25T00:55:32;97948.66;;;28.72;32.13
14902;BME280;7542;49.078;9.194;2023-04-25T00:56:36;97949.47;;;28.72;31.99
14902;BME280;7542;49.078;9.194;2023-04-25T00:57:38;97946.28;;;28.70;32.01
14902;BME280;7542;49.078;9.194;2023-04-25T00:58:41;97950.09;;;28.69;32.23
14902;BME280;7542;49.078;9.194;2023-04-25T00:59:45;97943.09;;;28.68;32.12
14902;BME280;7542;49.078;9.194;2023-04-25T01:00:50;97940.72;;;28.67;32.05
14902;BME280;7542;49.078;9.194;2023-04-25T01:01:53;97952.28;;;28.67;32.24
14902;BME280;7542;49.078;9.194;2023-04-25T01:02:55;97944.78;;;28.64;31.86
14902;BME280;7542;49.078;9.194;2023-04-25T01:03:59;97943.41;;;28.67;31.91
14902;BME280;7542;49.078;9.194;2023-04-25T01:05:03;97945.56;;;28.65;32.11
14902;BME280;7542;49.078;9.194;2023-04-25T01:06:09;97951.97;;;28.69;32.02
14902;BME280;7542;49.078;9.194;2023-04-25T01:07:12;97942.09;;;28.64;32.22
14902;BME280;7542;49.078;9.194;2023-04-25T01:08:14;97939.69;;;28.63;32.24
14902;BME280;7542;49.078;9.194;2023-04-25T01:09:16;97941.28;;;28.64;32.03
14902;BME280;7542;49.078;9.194;2023-04-25T01:10:18;97944.00;;;28.64;32.21
14902;BME280;7542;49.078;9.194;2023-04-25T01:11:20;97942.69;;;28.61;31.97
14902;BME280;7542;49.078;9.194;2023-04-25T01:12:23;97938.41;;;28.60;32.16
14902;BME280;7542;49.078;9.194;2023-04-25T01:13:25;97940.78;;;28.62;32.22
14902;BME280;7542;49.078;9.194;2023-04-25T01:14:27;97940.00;;;28.61;32.07
14902;BME280;7542;49.078;9.194;2023-04-25T01:15:29;97933.31;;;28.58;32.24
14902;BME280;7542;49.078;9.194;2023-04-25T01:16:33;97941.09;;;28.60;32.24
14902;BME280;7542;49.078;9.194;2023-04-25T01:17:35;97937.63;;;28.59;32.28
14902;BME280;7542;49.078;9.194;2023-04-25T01:18:40;97940.78;;;28.62;31.95
14902;BME280;7542;49.078;9.194;2023-04-25T01:19:42;97933.00;;;28.60;32.21
14902;BME280;7542;49.078;9.194;2023-04-25T01:20:46;97941.09;;;28.60;32.04
14902;BME280;7542;49.078;9.194;2023-04-25T01:21:48;97928.22;;;28.57;31.94
14902;BME280;7542;49.078;9.194;2023-04-25T01:22:55;97941.09;;;28.60;32.33
14902;BME280;7542;49.078;9.194;2023-04-25T01:23:57;97936.31;;;28.57;32.34
14902;BME280;7542;49.078;9.194;2023-04-25T01:25:00;97935.53;;;28.56;32.12
14902;BME280;7542;49.078;9.194;2023-04-25T01:26:02;97932.84;;;28.56;31.98
14902;BME280;7542;49.078;9.194;2023-04-25T01:27:07;97934.72;;;28.56;32.23
14902;BME280;7542;49.078;9.194;2023-04-25T01:28:10;97930.94;;;28.57;32.26
14902;BME280;7542;49.078;9.194;2023-04-25T01:29:12;97928.53;;;28.55;31.95
14902;BME280;7542;49.078;9.194;2023-04-25T01:30:15;97929.34;;;28.56;32.19
14902;BME280;7542;49.078;9.194;2023-04-25T01:31:18;97925.84;;;28.55;32.44
14902;BME280;7542;49.078;9.194;2023-04-25T01:32:23;97933.94;;;28.55;32.11
14902;BME280;7542;49.078;9.194;2023-04-25T01:33:25;97930.44;;;28.55;32.31
14902;BME280;7542;49.078;9.194;2023-04-25T01:34:27;97929.91;;;28.53;32.32
14902;BME280;7542;49.078;9.194;2023-04-25T01:35:29;97941.22;;;28.55;32.18
14902;BME280;7542;49.078;9.194;2023-04-25T01:36:32;97932.31;;;28.54;32.17
14902;BME280;7542;49.078;9.194;2023-04-25T01:37:42;97933.31;;;28.58;32.08
14902;BME280;7542;49.078;9.194;2023-04-25T01:38:44;97937.72;;;28.54;32.21
14902;BME280;7542;49.078;9.194;2023-04-25T01:39:49;97928.31;;;28.52;32.17
14902;BME280;7542;49.078;9.194;2023-04-25T01:40:52;97931.03;;;28.52;32.08
14902;BME280;7542;49.078;9.194;2023-04-25T01:41:55;97934.50;;;28.52;31.89
14902;BME280;7542;49.078;9.194;2023-04-25T01:42:58;97926.72;;;28.51;31.96
14902;BME280;7542;49.078;9.194;2023-04-25T01:44:01;97930.53;;;28.50;32.22
14902;BME280;7542;49.078;9.194;2023-04-25T01:45:04;97928.63;;;28.50;32.04
14902;BME280;7542;49.078;9.194;2023-04-25T01:46:07;97934.03;;;28.50;32.11
14902;BME280;7542;49.078;9.194;2023-04-25T01:47:09;97930.84;;;28.48;31.93
14902;BME280;7542;49.078;9.194;2023-04-25T01:48:13;97925.75;;;28.47;32.35
14902;BME280;7542;49.078;9.194;2023-04-25T01:49:18;97930.84;;;28.48;32.16
14902;BME280;7542;49.078;9.194;2023-04-25T01:50:21;97940.03;;;28.47;32.22
14902;BME280;7542;49.078;9.194;2023-04-25T01:51:25;97936.53;;;28.47;32.13
14902;BME280;7542;49.078;9.194;2023-04-25T01:52:26;97931.16;;;28.47;31.97
14902;BME280;7542;49.078;9.194;2023-04-25T01:53:29;97931.44;;;28.45;32.24
14902;BME280;7542;49.078;9.194;2023-04-25T01:54:31;97928.75;;;28.45;31.99
14902;BME280;7542;49.078;9.194;2023-04-25T01:55:35;97926.84;;;28.46;32.14
14902;BME280;7542;49.078;9.194;2023-04-25T01:56:38;97929.56;;;28.46;32.33
14902;BME280;7542;49.078;9.194;2023-04-25T01:57:39;97929.03;;;28.44;31.96
14902;BME280;7542;49.078;9.194;2023-04-25T01:58:45;97925.53;;;28.43;32.11
14902;BME280;7542;49.078;9.194;2023-04-25T01:59:48;97926.63;;;28.42;32.34
14902;BME280;7542;49.078;9.194;2023-04-25T02:00:51;97916.97;;;28.41;31.91
14902;BME280;7542;49.078;9.194;2023-04-25T02:01:53;97921.25;;;28.42;32.25
14902;BME280;7542;49.078;9.194;2023-04-25T02:02:58;97928.22;;;28.43;32.21
14902;BME280;7542;49.078;9.194;2023-04-25T02:04:00;97930.44;;;28.41;32.25
14902;BME280;7542;49.078;9.194;2023-04-25T02:05:04;97921.56;;;28.41;32.25
14902;BME280;7542;49.078;9.194;2023-04-25T02:06:07;97919.97;;;28.40;32.26
14902;BME280;7542;49.078;9.194;2023-04-25T02:07:09;97922.34;;;28.41;32.21
14902;BME280;7542;49.078;9.194;2023-04-25T02:08:11;97922.66;;;28.40;32.20
14902;BME280;7542;49.078;9.194;2023-04-25T02:09:13;97919.47;;;28.38;32.09
14902;BME280;7542;49.078;9.194;2023-04-25T02:10:15;97918.66;;;28.37;32.08
14902;BME280;7542;49.078;9.194;2023-04-25T02:11:17;97915.19;;;28.37;32.25
14902;BME280;7542;49.078;9.194;2023-04-25T02:12:19;97916.28;;;28.36;32.23
14902;BME280;7542;49.078;9.194;2023-04-25T02:13:21;97921.97;;;28.34;32.40
14902;BME280;7542;49.078;9.194;2023-04-25T02:14:23;97912.78;;;28.35;32.25
14902;BME280;7542;49.078;9.194;2023-04-25T02:15:25;97916.28;;;28.36;32.35
14902;BME280;7542;49.078;9.194;2023-04-25T02:16:27;97919.28;;;28.34;32.26
14902;BME280;7542;49.078;9.194;2023-04-25T02:17:29;97920.38;;;28.33;32.24
14902;BME280;7542;49.078;9.194;2023-04-25T02:18:33;97920.38;;;28.33;32.26
14902;BME280;7542;49.078;9.194;2023-04-25T02:19:35;97923.09;;;28.33;32.22
14902;BME280;7542;49.078;9.194;2023-04-25T02:20:37;97923.88;;;28.34;32.12
14902;BME280;7542;49.078;9.194;2023-04-25T02:21:39;97923.09;;;28.33;32.13
14902;BME280;7542;49.078;9.194;2023-04-25T02:22:41;97918.75;;;28.32;31.97
14902;BME280;7542;49.078;9.194;2023-04-25T02:23:44;97920.66;;;28.32;32.09
14902;BME280;7542;49.078;9.194;2023-04-25T02:24:50;97926.34;;;28.30;32.32
14902;BME280;7542;49.078;9.194;2023-04-25T02:25:53;97919.06;;;28.30;31.95
14902;BME280;7542;49.078;9.194;2023-04-25T02:26:57;97919.88;;;28.31;32.24
14902;BME280;7542;49.078;9.194;2023-04-25T02:27:59;97928.75;;;28.32;32.35
14902;BME280;7542;49.078;9.194;2023-04-25T02:29:01;97925.56;;;28.29;32.24
14902;BME280;7542;49.078;9.194;2023-04-25T02:30:05;97924.75;;;28.29;32.45
14902;BME280;7542;49.078;9.194;2023-04-25T02:31:10;97920.97;;;28.30;32.13
14902;BME280;7542;49.078;9.194;2023-04-25T02:32:12;97919.69;;;28.27;32.09
14902;BME280;7542;49.078;9.194;2023-04-25T02:33:14;97921.28;;;28.28;31.99
14902;BME280;7542;49.078;9.194;2023-04-25T02:34:18;97915.88;;;28.28;32.11
14902;BME280;7542;49.078;9.194;2023-04-25T02:35:20;97921.53;;;28.27;32.19
14902;BME280;7542;49.078;9.194;2023-04-25T02:36:22;97925.88;;;28.28;32.31
14902;BME280;7542;49.078;9.194;2023-04-25T02:37:25;97919.69;;;28.27;32.29
14902;BME280;7542;49.078;9.194;2023-04-25T02:38:27;97918.06;;;28.26;32.13
14902;BME280;7542;49.078;9.194;2023-04-25T02:39:29;97910.56;;;28.23;32.16
14902;BME280;7542;49.078;9.194;2023-04-25T02:40:32;97906.78;;;28.24;32.12
14902;BME280;7542;49.078;9.194;2023-04-25T02:41:34;97912.97;;;28.25;32.33
14902;BME280;7542;49.078;9.194;2023-04-25T02:42:37;97917.56;;;28.24;32.35
14902;BME280;7542;49.078;9.194;2023-04-25T02:43:39;97909.78;;;28.23;32.19
14902;BME280;7542;49.078;9.194;2023-04-25T02:44:41;97910.84;;;28.22;32.61
14902;BME280;7542;49.078;9.194;2023-04-25T02:45:44;97918.94;;;28.22;32.25
14902;BME280;7542;49.078;9.194;2023-04-25T02:46:46;97910.56;;;28.23;32.27
14902;BME280;7542;49.078;9.194;2023-04-25T02:47:48;97910.34;;;28.20;32.31
14902;BME280;7542;49.078;9.194;2023-04-25T02:48:50;97913.53;;;28.22;32.21
14902;BME280;7542;49.078;9.194;2023-04-25T02:49:52;97905.75;;;28.20;32.31
14902;BME280;7542;49.078;9.194;2023-04-25T02:50:55;97911.94;;;28.21;32.16
14902;BME280;7542;49.078;9.194;2023-04-25T02:51:56;97915.75;;;28.20;32.39
14902;BME280;7542;49.078;9.194;2023-04-25T02:52:58;97910.34;;;28.20;32.17
14902;BME280;7542;49.078;9.194;2023-04-25T02:54:00;97911.47;;;28.19;32.15
14902;BME280;7542;49.078;9.194;2023-04-25T02:55:03;97909.25;;;28.21;32.14
14902;BME280;7542;49.078;9.194;2023-04-25T02:56:05;97904.16;;;28.19;32.17
14902;BME280;7542;49.078;9.194;2023-04-25T02:57:09;97903.69;;;28.17;31.97
14902;BME280;7542;49.078;9.194;2023-04-25T02:58:11;97907.97;;;28.18;32.42
14902;BME280;7542;49.078;9.194;2023-04-25T02:59:14;97907.16;;;28.18;32.20
14902;BME280;7542;49.078;9.194;2023-04-25T03:00:16;97899.38;;;28.16;32.14
14902;BME280;7542;49.078;9.194;2023-04-25T03:01:18;97909.88;;;28.18;32.33
14902;BME280;7542;49.078;9.194;2023-04-25T03:02:20;97907.47;;;28.16;32.14
14902;BME280;7542;49.078;9.194;2023-04-25T03:03:22;97903.97;;;28.16;32.24
14902;BME280;7542;49.078;9.194;2023-04-25T03:04:24;97898.69;;;28.11;32.24
14902;BME280;7542;49.078;9.194;2023-04-25T03:05:26;97902.09;;;28.16;32.19
14902;BME280;7542;49.078;9.194;2023-04-25T03:06:28;97904.78;;;28.16;32.44
14902;BME280;7542;49.078;9.194;2023-04-25T03:07:30;97899.19;;;28.13;32.24
14902;BME280;7542;49.078;9.194;2023-04-25T03:08:32;97900.00;;;28.13;32.19
14902;BME280;7542;49.078;9.194;2023-04-25T03:09:35;97891.91;;;28.13;32.16
14902;BME280;7542;49.078;9.194;2023-04-25T03:10:38;97886.81;;;28.12;32.18
14902;BME280;7542;49.078;9.194;2023-04-25T03:11:40;97899.19;;;28.13;32.10
14902;BME280;7542;49.078;9.194;2023-04-25T03:12:42;97894.09;;;28.11;32.20
14902;BME280;7542;49.078;9.194;2023-04-25T03:13:44;97897.88;;;28.10;32.28
14902;BME280;7542;49.078;9.194;2023-04-25T03:14:46;97897.59;;;28.12;32.17
14902;BME280;7542;49.078;9.194;2023-04-25T03:15:48;97895.19;;;28.10;32.35
14902;BME280;7542;49.078;9.194;2023-04-25T03:16:50;97902.16;;;28.11;32.13
14902;BME280;7542;49.078;9.194;2023-04-25T03:17:52;97894.38;;;28.10;32.26
14902;BME280;7542;49.078;9.194;2023-04-25T03:18:54;97898.97;;;28.09;32.35
14902;BME280;7542;49.078;9.194;2023-04-25T03:19:57;97897.09;;;28.10;32.07
14902;BME280;7542;49.078;9.194;2023-04-25T03:20:59;97898.19;;;28.09;32.47
14902;BME280;7542;49.078;9.194;2023-04-25T03:22:01;97905.47;;;28.08;32.20
14902;BME280;7542;49.078;9.194;2023-04-25T03:23:03;97901.97;;;28.08;32.39
14902;BME280;7542;49.078;9.194;2023-04-25T03:24:06;97898.19;;;28.09;32.19
14902;BME280;7542;49.078;9.194;2023-04-25T03:25:08;97904.38;;;28.09;32.13
14902;BME280;7542;49.078;9.194;2023-04-25T03:26:10;97902.78;;;28.08;32.25
14902;BME280;7542;49.078;9.194;2023-04-25T03:27:13;97902.78;;;28.08;32.16
14902;BME280;7542;49.078;9.194;2023-04-25T03:28:15;97906.56;;;28.07;32.14
14902;BME280;7542;49.078;9.194;2023-04-25T03:29:17;97903.88;;;28.07;32.23
14902;BME280;7542;49.078;9.194;2023-04-25T03:30:19;97899.28;;;28.08;32.10
14902;BME280;7542;49.078;9.194;2023-04-25T03:31:21;97899.28;;;28.08;32.21
14902;BME280;7542;49.078;9.194;2023-04-25T03:32:24;97899.59;;;28.06;32.13
14902;BME280;7542;49.078;9.194;2023-04-25T03:33:27;97905.78;;;28.07;32.18
14902;BME280;7542;49.078;9.194;2023-04-25T03:34:29;97904.50;;;28.04;32.71
14902;BME280;7542;49.078;9.194;2023-04-25T03:35:32;97898.78;;;28.06;32.06
14902;BME280;7542;49.078;9.194;2023-04-25T03:36:34;97903.38;;;28.05;32.28
14902;BME280;7542;49.078;9.194;2023-04-25T03:37:37;97891.81;;;28.05;32.17
14902;BME280;7542;49.078;9.194;2023-04-25T03:38:39;97899.41;;;28.02;32.24
14902;BME280;7542;49.078;9.194;2023-04-25T03:39:43;97899.41;;;28.02;32.29
14902;BME280;7542;49.078;9.194;2023-04-25T03:40:45;97894.81;;;28.03;32.03
14902;BME280;7542;49.078;9.194;2023-04-25T03:41:47;97901.00;;;28.04;32.16
14902;BME280;7542;49.078;9.194;2023-04-25T03:42:50;97899.41;;;28.02;32.13
14902;BME280;7542;49.078;9.194;2023-04-25T03:43:52;97896.22;;;28.00;31.98
14902;BME280;7542;49.078;9.194;2023-04-25T03:44:54;97904.31;;;28.00;32.16
14902;BME280;7542;49.078;9.194;2023-04-25T03:45:56;97895.13;;;28.01;31.97
14902;BME280;7542;49.078;9.194;2023-04-25T03:46:58;97899.97;;;27.99;32.33
14902;BME280;7542;49.078;9.194;2023-04-25T03:48:00;97895.69;;;27.98;32.35
14902;BME280;7542;49.078;9.194;2023-04-25T03:49:02;97901.31;;;28.02;32.23
14902;BME280;7542;49.078;9.194;2023-04-25T03:50:05;97893.22;;;28.02;32.54
14902;BME280;7542;49.078;9.194;2023-04-25T03:51:10;97904.00;;;28.02;32.45
14902;BME280;7542;49.078;9.194;2023-04-25T03:52:12;97898.09;;;28.00;32.10
14902;BME280;7542;49.078;9.194;2023-04-25T03:53:15;97899.97;;;27.99;32.24
14902;BME280;7542;49.078;9.194;2023-04-25T03:54:16;97901.06;;;27.98;32.02
14902;BME280;7542;49.078;9.194;2023-04-25T03:55:19;97896.78;;;27.97;32.13
14902;BME280;7542;49.078;9.194;2023-04-25T03:56:21;97897.91;;;27.96;32.14
14902;BME280;7542;49.078;9.194;2023-04-25T03:57:23;97896.00;;;27.97;32.14
14902;BME280;7542;49.078;9.194;2023-04-25T03:58:26;97906.47;;;27.98;32.33
14902;BME280;7542;49.078;9.194;2023-04-25T03:59:28;97897.91;;;27.96;32.30
14902;BME280;7542;49.078;9.194;2023-04-25T04:00:30;97898.81;;;27.92;32.11
14902;BME280;7542;49.078;9.194;2023-04-25T04:01:32;97905.97;;;27.96;32.00
14902;BME280;7542;49.078;9.194;2023-04-25T04:02:34;97902.19;;;27.97;32.06
14902;BME280;7542;49.078;9.194;2023-04-25T04:03:38;97905.19;;;27.96;32.16
14902;BME280;7542;49.078;9.194;2023-04-25T04:04:41;97906.47;;;27.98;32.28
14902;BME280;7542;49.078;9.194;2023-04-25T04:05:46;97903.47;;;28.00;32.13
14902;BME280;7542;49.078;9.194;2023-04-25T04:06:49;97904.56;;;27.99;32.03
14902;BME280;7542;49.078;9.194;2023-04-25T04:07:54;97903.47;;;28.00;32.07
14902;BME280;7542;49.078;9.194;2023-04-25T04:09:00;97908.84;;;28.00;32.34
14902;BME280;7542;49.078;9.194;2023-04-25T04:10:02;97906.16;;;28.00;32.05
14902;BME280;7542;49.078;9.194;2023-04-25T04:11:04;97904.56;;;27.99;32.14
14902;BME280;7542;49.078;9.194;2023-04-25T04:12:07;97903.19;;;28.01;32.18
14902;BME280;7542;49.078;9.194;2023-04-25T04:13:10;97904.00;;;28.02;32.04
14902;BME280;7542;49.078;9.194;2023-04-25T04:14:12;97908.84;;;28.00;32.21
14902;BME280;7542;49.078;9.194;2023-04-25T04:15:17;97900.78;;;28.00;32.24
14902;BME280;7542;49.078;9.194;2023-04-25T04:16:20;97907.25;;;27.99;32.24
14902;BME280;7542;49.078;9.194;2023-04-25T04:17:22;97911.28;;;28.01;32.07
14902;BME280;7542;49.078;9.194;2023-04-25T04:18:24;97912.88;;;28.02;32.09
14902;BME280;7542;49.078;9.194;2023-04-25T04:19:28;97904.00;;;28.02;31.97
14902;BME280;7542;49.078;9.194;2023-04-25T04:20:31;97904.00;;;28.02;32.17
14902;BME280;7542;49.078;9.194;2023-04-25T04:21:34;97911.78;;;28.04;32.17
14902;BME280;7542;49.078;9.194;2023-04-25T04:22:40;97906.16;;;28.00;32.22
14902;BME280;7542;49.078;9.194;2023-04-25T04:23:42;97906.16;;;28.00;32.03
14902;BME280;7542;49.078;9.194;2023-04-25T04:24:44;97912.88;;;28.02;32.08
14902;BME280;7542;49.078;9.194;2023-04-25T04:25:48;97917.97;;;28.04;32.05
14902;BME280;7542;49.078;9.194;2023-04-25T04:26:50;97916.66;;;28.01;31.93
14902;BME280;7542;49.078;9.194;2023-04-25T04:27:52;97912.88;;;28.02;32.09
14902;BME280;7542;49.078;9.194;2023-04-25T04:28:58;97919.56;;;28.05;32.13
14902;BME280;7542;49.078;9.194;2023-04-25T04:30:01;97915.56;;;28.02;32.05
14902;BME280;7542;49.078;9.194;2023-04-25T04:31:05;97915.56;;;28.02;31.94
14902;BME280;7542;49.078;9.194;2023-04-25T04:32:07;97911.84;;;27.98;31.92
14902;BME280;7542;49.078;9.194;2023-04-25T04:33:10;97924.16;;;28.05;31.98
14902;BME280;7542;49.078;9.194;2023-04-25T04:34:14;97920.34;;;28.06;31.91
14902;BME280;7542;49.078;9.194;2023-04-25T04:35:19;97925.25;;;28.04;31.56
14902;BME280;7542;49.078;9.194;2023-04-25T04:36:21;97931.75;;;28.02;32.07
14902;BME280;7542;49.078;9.194;2023-04-25T04:37:24;97924.16;;;28.05;31.98
14902;BME280;7542;49.078;9.194;2023-04-25T04:38:27;97921.75;;;28.03;31.93
14902;BME280;7542;49.078;9.194;2023-04-25T04:39:29;97915.09;;;28.00;31.97
14902;BME280;7542;49.078;9.194;2023-04-25T04:40:31;97920.97;;;28.02;31.88
14902;BME280;7542;49.078;9.194;2023-04-25T04:41:33;97925.56;;;28.02;32.03
14902;BME280;7542;49.078;9.194;2023-04-25T04:42:35;97927.16;;;28.03;31.82
14902;BME280;7542;49.078;9.194;2023-04-25T04:43:38;97924.16;;;28.05;32.04
14902;BME280;7542;49.078;9.194;2023-04-25T04:44:44;97925.75;;;28.06;32.02
14902;BME280;7542;49.078;9.194;2023-04-25T04:45:46;97927.94;;;28.04;32.11
14902;BME280;7542;49.078;9.194;2023-04-25T04:46:50;97922.25;;;28.05;32.15
14902;BME280;7542;49.078;9.194;2023-04-25T04:47:54;97924.94;;;28.05;32.10
14902;BME280;7542;49.078;9.194;2023-04-25T04:48:57;97929.53;;;28.05;32.00
14902;BME280;7542;49.078;9.194;2023-04-25T04:50:10;97921.94;;;28.07;32.15
14902;BME280;7542;49.078;9.194;2023-04-25T04:51:13;97926.53;;;28.06;32.03
14902;BME280;7542;49.078;9.194;2023-04-25T04:52:15;97923.06;;;28.06;32.00
14902;BME280;7542;49.078;9.194;2023-04-25T04:53:19;97926.84;;;28.05;32.10
14902;BME280;7542;49.078;9.194;2023-04-25T04:54:22;97924.94;;;28.05;31.77
14902;BME280;7542;49.078;9.194;2023-04-25T04:55:26;97933.34;;;28.04;32.50
14902;BME280;7542;49.078;9.194;2023-04-25T04:56:32;97927.94;;;28.04;32.17
14902;BME280;7542;49.078;9.194;2023-04-25T04:57:35;97939.81;;;28.02;32.14
14902;BME280;7542;49.078;9.194;2023-04-25T04:58:38;97942.53;;;28.02;32.13
14902;BME280;7542;49.078;9.194;2023-04-25T04:59:41;97944.91;;;28.04;32.25
14902;BME280;7542;49.078;9.194;2023-04-25T05:00:44;97948.41;;;28.05;32.03
14902;BME280;7542;49.078;9.194;2023-04-25T05:01:46;97944.19;;;27.98;32.00
14902;BME280;7542;49.078;9.194;2023-04-25T05:02:49;97954.91;;;28.04;32.22
14902;BME280;7542;49.078;9.194;2023-04-25T05:03:51;97948.72;;;28.03;32.39
14902;BME280;7542;49.078;9.194;2023-04-25T05:04:56;97956.00;;;28.02;32.16
14902;BME280;7542;49.078;9.194;2023-04-25T05:05:58;97950.91;;;28.01;32.26
14902;BME280;7542;49.078;9.194;2023-04-25T05:07:00;97946.59;;;28.00;32.42
14902;BME280;7542;49.078;9.194;2023-04-25T05:08:02;97955.50;;;28.00;32.43
14902;BME280;7542;49.078;9.194;2023-04-25T05:09:04;97949.00;;;28.01;32.58
14902;BME280;7542;49.078;9.194;2023-04-25T05:10:07;97950.38;;;27.99;32.54
14902;BME280;7542;49.078;9.194;2023-04-25T05:11:09;97950.59;;;28.02;32.38
14902;BME280;7542;49.078;9.194;2023-04-25T05:12:13;97944.19;;;27.98;32.42
14902;BME280;7542;49.078;9.194;2023-04-25T05:13:14;97946.59;;;28.00;32.33
14902;BME280;7542;49.078;9.194;2023-04-25T05:14:18;97943.63;;;28.01;32.59
14902;BME280;7542;49.078;9.194;2023-04-25T05:15:20;97945.28;;;27.97;32.75
14902;BME280;7542;49.078;9.194;2023-04-25T05:16:22;97950.38;;;27.99;32.85
14902;BME280;7542;49.078;9.194;2023-04-25T05:17:25;97940.94;;;28.01;32.83
14902;BME280;7542;49.078;9.194;2023-04-25T05:18:27;97951.97;;;28.00;33.19
14902;BME280;7542;49.078;9.194;2023-04-25T05:19:30;97950.69;;;27.97;33.10
14902;BME280;7542;49.078;9.194;2023-04-25T05:20:32;97948.78;;;27.98;33.19
14902;BME280;7542;49.078;9.194;2023-04-25T05:21:34;97952.28;;;27.98;33.22
14902;BME280;7542;49.078;9.194;2023-04-25T05:22:36;97950.69;;;27.97;33.36
14902;BME280;7542;49.078;9.194;2023-04-25T05:23:39;97946.41;;;27.96;33.10
14902;BME280;7542;49.078;9.194;2023-04-25T05:24:41;97949.59;;;27.98;33.18
14902;BME280;7542;49.078;9.194;2023-04-25T05:25:42;97954.97;;;27.98;33.26
14902;BME280;7542;49.078;9.194;2023-04-25T05:26:45;97951.00;;;27.96;33.27
14902;BME280;7542;49.078;9.194;2023-04-25T05:27:47;97957.97;;;27.97;33.06
14902;BME280;7542;49.078;9.194;2023-04-25T05:28:50;97957.97;;;27.97;33.10
14902;BME280;7542;49.078;9.194;2023-04-25T05:29:52;97959.88;;;27.96;33.20
14902;BME280;7542;49.078;9.194;2023-04-25T05:30:54;97954.47;;;27.96;32.91
14902;BME280;7542;49.078;9.194;2023-04-25T05:31:58;97961.28;;;27.94;33.10
14902;BME280;7542;49.078;9.194;2023-04-25T05:33:00;97955.59;;;27.95;33.10
14902;BME280;7542;49.078;9.194;2023-04-25T05:34:03;97962.06;;;27.94;32.94
14902;BME280;7542;49.078;9.194;2023-04-25T05:35:08;97953.50;;;27.92;32.76
14902;BME280;7542;49.078;9.194;2023-04-25T05:36:13;97960.19;;;27.95;33.10
14902;BME280;7542;49.078;9.194;2023-04-25T05:37:15;97963.97;;;27.94;32.97